tititudorancea.com
Station Historical Data
Daily Summary for February 12, 2019 Units:  English    Metric   Both
« Previous Day
Next Day »
Daily Weekly Monthly Yearly Custom
  High: Low: Average:
Temperature: TemperatureF °F 50.5 °F 58.4 °F
Dew Point: DewpointF °F 33.9 °F 46.3 °F
Humidity: Humidity % 36 % 66 %
Wind Speed: WindSpeedMPH mph 3.0 mph 11.6 mph
Wind Gust: WindSpeedGustMPH mph - -
Wind:- - West
Pressure: PressureIn in 29.28 in -
Precipitation: 0.06 in    
Historical Graphs
 
 
Ararat weather Find more about Weather in Ararat, AU


 



 


Tabular Data for February 12, 2019
Time Temperature Dew Point Pressure Wind Wind Speed Wind Gust Humidity Rainfall Rate (Hourly)
TemperatureF °F DewpointF °F PressureIn in Calm     Humidity % HourlyPrecipIn in
00:04 63.5 °F 54.7 °F 29.41 in NW 8.1 mph 3.8 mph 73 % 0.00 in
00:09 63.5 °F 54.7 °F 29.41 in WNW 12.7 mph 6.5 mph 73 % 0.00 in
00:14 63.5 °F 54.3 °F 29.41 in NW 10.4 mph 4.0 mph 72 % 0.00 in
00:19 63.4 °F 54.2 °F 29.41 in NW 11.5 mph 6.0 mph 72 % 0.00 in
00:24 63.4 °F 54.2 °F 29.41 in NW 23.0 mph 16.4 mph 72 % 0.00 in
00:29 63.5 °F 53.9 °F 29.41 in NW 15.0 mph 8.8 mph 71 % 0.00 in
00:34 63.5 °F 53.9 °F 29.40 in NNW 11.5 mph 8.5 mph 71 % 0.00 in
00:39 63.3 °F 53.7 °F 29.41 in NW 16.0 mph 10.4 mph 71 % 0.00 in
00:44 63.2 °F 53.6 °F 29.40 in NW 11.5 mph 5.5 mph 71 % 0.00 in
00:49 63.0 °F 53.4 °F 29.40 in NW 16.1 mph 8.1 mph 71 % 0.00 in
00:54 63.0 °F 53.4 °F 29.40 in NW 19.6 mph 8.8 mph 71 % 0.00 in
00:59 62.9 °F 53.7 °F 29.40 in NW 19.6 mph 13.4 mph 72 % 0.00 in
01:04 62.8 °F 53.6 °F 29.39 in NW 11.0 mph 8.9 mph 72 % 0.00 in
01:09 62.5 °F 53.3 °F 29.39 in NW 12.7 mph 7.3 mph 72 % 0.00 in
01:14 62.4 °F 53.6 °F 29.39 in NW 15.0 mph 9.4 mph 73 % 0.00 in
01:19 62.3 °F 53.5 °F 29.39 in NW 11.5 mph 5.4 mph 73 % 0.00 in
01:24 62.2 °F 53.4 °F 29.39 in NW 6.9 mph 2.9 mph 73 % 0.00 in
01:29 62.0 °F 53.2 °F 29.38 in NNW 6.9 mph 6.8 mph 73 % 0.00 in
01:34 61.8 °F 53.1 °F 29.38 in NNW 6.9 mph 3.0 mph 73 % 0.00 in
01:39 61.6 °F 53.2 °F 29.38 in NW 12.7 mph 7.1 mph 74 % 0.00 in
01:44 61.5 °F 53.1 °F 29.37 in NW 8.1 mph 4.3 mph 74 % 0.00 in
01:49 61.5 °F 53.1 °F 29.37 in NNW 10.4 mph 5.2 mph 74 % 0.00 in
01:54 61.3 °F 52.9 °F 29.37 in NNW 6.9 mph 5.8 mph 74 % 0.00 in
01:59 61.3 °F 53.3 °F 29.37 in NW 11.5 mph 7.6 mph 75 % 0.00 in
02:04 61.3 °F 53.3 °F 29.37 in NW 13.8 mph 5.6 mph 75 % 0.00 in
02:05 63.5 °F 54.7 °F 29.41 in WNW 7.0 mph 11.0 mph 73 % 0.00 in
02:09 61.3 °F 53.3 °F 29.36 in NNW 10.0 mph 7.4 mph 75 % 0.00 in
02:10 63.5 °F 54.7 °F 29.41 in NW 5.0 mph 11.0 mph 73 % 0.00 in
02:14 61.3 °F 53.3 °F 29.36 in NNW 10.4 mph 5.5 mph 75 % 0.00 in
02:15 63.5 °F 54.3 °F 29.41 in NW 8.0 mph 16.0 mph 72 % 0.00 in
02:19 61.4 °F 53.4 °F 29.36 in NW 12.7 mph 6.7 mph 75 % 0.00 in
02:20 63.5 °F 54.3 °F 29.41 in NW 6.0 mph 12.0 mph 72 % 0.00 in
02:24 61.3 °F 53.3 °F 29.35 in North 11.5 mph 7.8 mph 75 % 0.00 in
02:25 63.4 °F 54.6 °F 29.41 in NW 5.0 mph 12.0 mph 73 % 0.00 in
02:29 61.1 °F 53.5 °F 29.35 in North 11.5 mph 6.9 mph 76 % 0.00 in
02:30 63.4 °F 53.8 °F 29.41 in NW 10.0 mph 23.0 mph 71 % 0.00 in
02:34 60.9 °F 53.6 °F 29.34 in North 9.2 mph 4.7 mph 77 % 0.00 in
02:35 63.5 °F 53.9 °F 29.40 in NW 14.0 mph 20.0 mph 71 % 0.00 in
02:39 60.7 °F 53.8 °F 29.34 in North 10.4 mph 7.8 mph 78 % 0.00 in
02:40 63.4 °F 53.8 °F 29.40 in NW 9.0 mph 14.0 mph 71 % 0.00 in
02:44 60.4 °F 53.9 °F 29.34 in North 11.5 mph 5.8 mph 79 % 0.00 in
02:45 63.3 °F 53.7 °F 29.40 in NW 16.0 mph 23.0 mph 71 % 0.00 in
02:49 60.3 °F 54.1 °F 29.33 in North 10.0 mph 7.5 mph 80 % 0.00 in
02:50 63.2 °F 53.6 °F 29.40 in NW 12.0 mph 18.0 mph 71 % 0.00 in
02:54 60.1 °F 53.9 °F 29.33 in NW 12.7 mph 4.5 mph 80 % 0.00 in
02:55 63.0 °F 53.4 °F 29.40 in NW 10.0 mph 20.0 mph 71 % 0.00 in
02:59 60.0 °F 54.2 °F 29.33 in North 10.0 mph 3.9 mph 81 % 0.00 in
03:00 63.0 °F 53.4 °F 29.40 in NW 9.0 mph 19.0 mph 71 % 0.00 in
03:04 60.0 °F 54.2 °F 29.33 in NNW 11.5 mph 6.6 mph 81 % 0.00 in
03:05 62.9 °F 53.7 °F 29.40 in NW 9.0 mph 20.0 mph 72 % 0.00 in
03:09 60.1 °F 54.2 °F 29.33 in NW 9.2 mph 6.5 mph 81 % 0.00 in
03:10 62.7 °F 53.5 °F 29.39 in NW 9.0 mph 15.0 mph 72 % 0.00 in
03:14 60.3 °F 54.4 °F 29.33 in WNW 13.8 mph 6.8 mph 81 % 0.00 in
03:15 62.5 °F 53.3 °F 29.39 in NW 9.0 mph 16.0 mph 72 % 0.00 in
03:19 60.5 °F 54.6 °F 29.32 in NW 11.5 mph 8.1 mph 81 % 0.00 in
03:20 62.4 °F 53.6 °F 29.39 in NW 7.0 mph 22.0 mph 73 % 0.00 in
03:24 60.7 °F 54.5 °F 29.32 in NW 11.5 mph 7.6 mph 80 % 0.00 in
03:25 62.2 °F 53.4 °F 29.39 in WNW 9.0 mph 17.0 mph 73 % 0.00 in
03:29 60.8 °F 54.2 °F 29.32 in NW 17.3 mph 10.4 mph 79 % 0.00 in
03:30 62.1 °F 53.3 °F 29.38 in NW 7.0 mph 14.0 mph 73 % 0.00 in
03:34 60.8 °F 54.2 °F 29.32 in NW 15.0 mph 6.2 mph 79 % 0.00 in
03:35 61.9 °F 53.1 °F 29.38 in NW 7.0 mph 11.0 mph 73 % 0.00 in
03:39 60.7 °F 54.1 °F 29.32 in NW 11.5 mph 8.5 mph 79 % 0.00 in
03:40 61.7 °F 53.3 °F 29.38 in NNW 7.0 mph 11.0 mph 74 % 0.00 in
03:44 60.7 °F 54.1 °F 29.31 in NW 15.0 mph 10.2 mph 79 % 0.00 in
03:45 61.6 °F 53.2 °F 29.38 in NW 3.0 mph 13.0 mph 74 % 0.00 in
03:49 60.6 °F 54.0 °F 29.31 in NW 16.1 mph 8.2 mph 79 % 0.00 in
03:50 61.5 °F 53.1 °F 29.37 in NW 5.0 mph 10.0 mph 74 % 0.00 in
03:54 60.5 °F 54.0 °F 29.31 in NNW 16.1 mph 12.1 mph 79 % 0.00 in
03:55 61.5 °F 53.1 °F 29.37 in NW 5.0 mph 12.0 mph 74 % 0.00 in
03:59 60.5 °F 54.0 °F 29.30 in NW 16.1 mph 13.4 mph 79 % 0.00 in
04:00 61.3 °F 52.9 °F 29.37 in NW 5.0 mph 10.0 mph 74 % 0.00 in
04:04 60.6 °F 54.0 °F 29.30 in North 13.8 mph 12.5 mph 79 % 0.00 in
04:05 61.3 °F 53.3 °F 29.37 in NW 5.0 mph 13.0 mph 75 % 0.00 in
04:09 60.7 °F 54.1 °F 29.30 in NNW 19.6 mph 15.0 mph 79 % 0.00 in
04:10 61.3 °F 53.3 °F 29.36 in NW 5.0 mph 14.0 mph 75 % 0.00 in
04:14 60.8 °F 54.2 °F 29.30 in NW 17.3 mph 12.4 mph 79 % 0.00 in
04:15 61.3 °F 53.3 °F 29.36 in NW 9.0 mph 15.0 mph 75 % 0.00 in
04:19 60.7 °F 54.1 °F 29.30 in NNW 15.0 mph 11.6 mph 79 % 0.00 in
04:20 61.3 °F 53.3 °F 29.36 in NW 7.0 mph 12.0 mph 75 % 0.00 in
04:24 60.7 °F 54.1 °F 29.30 in NNW 17.3 mph 13.0 mph 79 % 0.00 in
04:25 61.4 °F 53.4 °F 29.36 in NW 5.0 mph 14.0 mph 75 % 0.00 in
04:29 60.7 °F 54.5 °F 29.30 in NNW 13.8 mph 8.4 mph 80 % 0.00 in
04:30 61.2 °F 53.2 °F 29.35 in NNW 3.0 mph 12.0 mph 75 % 0.00 in
04:34 60.6 °F 54.4 °F 29.29 in NNW 12.7 mph 10.7 mph 80 % 0.00 in
04:35 61.0 °F 53.4 °F 29.35 in North 7.0 mph 13.0 mph 76 % 0.00 in
04:39 60.4 °F 54.5 °F 29.29 in NNW 13.8 mph 6.2 mph 81 % 0.00 in
04:40 60.8 °F 53.5 °F 29.34 in North 7.0 mph 10.0 mph 77 % 0.00 in
04:44 60.4 °F 54.5 °F 29.29 in NNW 11.5 mph 9.8 mph 81 % 0.00 in
04:45 60.6 °F 53.7 °F 29.34 in North 5.0 mph 11.0 mph 78 % 0.00 in
04:49 60.3 °F 54.4 °F 29.29 in NNW 17.3 mph 11.6 mph 81 % 0.00 in
04:50 60.4 °F 53.9 °F 29.34 in North 9.0 mph 11.0 mph 79 % 0.00 in
04:54 60.3 °F 54.4 °F 29.30 in NNW 19.6 mph 11.9 mph 81 % 0.00 in
04:55 60.2 °F 54.0 °F 29.33 in North 3.0 mph 11.0 mph 80 % 0.00 in
04:59 60.3 °F 54.4 °F 29.29 in NW 12.7 mph 8.4 mph 81 % 0.00 in
05:00 60.1 °F 53.9 °F 29.33 in NNW 6.0 mph 13.0 mph 80 % 0.00 in
05:04 60.3 °F 54.4 °F 29.29 in North 13.8 mph 10.7 mph 81 % 0.00 in
05:05 60.0 °F 54.2 °F 29.33 in NNW 5.0 mph 10.0 mph 81 % 0.00 in
05:09 60.3 °F 54.4 °F 29.29 in NNW 13.8 mph 6.4 mph 81 % 0.00 in
05:10 60.0 °F 54.2 °F 29.33 in NNW 6.0 mph 15.0 mph 81 % 0.00 in
05:14 60.2 °F 54.3 °F 29.29 in NNW 11.5 mph 9.4 mph 81 % 0.00 in
05:15 60.2 °F 54.3 °F 29.33 in NW 7.0 mph 14.0 mph 81 % 0.00 in
05:19 60.2 °F 54.3 °F 29.29 in NW 15.0 mph 12.3 mph 81 % 0.00 in
05:20 60.4 °F 54.5 °F 29.33 in NW 9.0 mph 15.0 mph 81 % 0.00 in
05:24 60.6 °F 54.0 °F 29.29 in NW 16.1 mph 9.3 mph 79 % 0.00 in
05:25 60.6 °F 54.4 °F 29.33 in NW 10.0 mph 16.0 mph 80 % 0.00 in
05:29 60.9 °F 54.3 °F 29.29 in NW 11.5 mph 7.5 mph 79 % 0.00 in
05:30 60.7 °F 54.5 °F 29.32 in NW 12.0 mph 20.0 mph 80 % 0.00 in
05:34 60.8 °F 54.2 °F 29.29 in NNW 15.0 mph 5.8 mph 79 % 0.00 in
05:35 60.8 °F 54.2 °F 29.32 in NW 6.0 mph 17.0 mph 79 % 0.00 in
05:39 60.9 °F 54.3 °F 29.29 in WNW 15.0 mph 9.7 mph 79 % 0.00 in
05:40 60.7 °F 54.1 °F 29.32 in NW 10.0 mph 15.0 mph 79 % 0.00 in
05:44 61.3 °F 54.0 °F 29.29 in NW 18.4 mph 10.0 mph 77 % 0.00 in
05:45 60.7 °F 54.1 °F 29.32 in NW 10.0 mph 16.0 mph 79 % 0.00 in
05:49 61.5 °F 54.2 °F 29.29 in NNW 13.8 mph 10.8 mph 77 % 0.00 in
05:50 60.7 °F 54.1 °F 29.31 in NW 12.0 mph 19.0 mph 79 % 0.00 in
05:54 61.5 °F 53.9 °F 29.29 in NW 16.1 mph 9.0 mph 76 % 0.00 in
05:55 60.6 °F 54.0 °F 29.31 in NW 12.0 mph 16.0 mph 79 % 0.00 in
05:59 61.5 °F 53.9 °F 29.29 in NNW 15.0 mph 12.5 mph 76 % 0.00 in
06:00 60.5 °F 54.0 °F 29.31 in NW 7.0 mph 18.0 mph 79 % 0.00 in
06:04 61.5 °F 54.2 °F 29.29 in NW 12.7 mph 8.2 mph 77 % 0.00 in
06:05 60.5 °F 54.0 °F 29.30 in NW 14.0 mph 19.0 mph 79 % 0.00 in
06:09 61.4 °F 54.1 °F 29.29 in NW 17.3 mph 15.1 mph 77 % 0.00 in
06:10 60.6 °F 54.0 °F 29.31 in NW 13.0 mph 22.0 mph 79 % 0.00 in
06:14 61.4 °F 54.5 °F 29.28 in NNW 11.5 mph 8.3 mph 78 % 0.00 in
06:15 60.7 °F 54.1 °F 29.30 in NW 13.0 mph 21.0 mph 79 % 0.00 in
06:19 61.1 °F 54.5 °F 29.29 in NW 15.0 mph 10.5 mph 79 % 0.00 in
06:20 60.8 °F 54.2 °F 29.30 in NW 12.0 mph 19.0 mph 79 % 0.00 in
06:24 60.7 °F 54.8 °F 29.29 in NW 16.1 mph 9.5 mph 81 % 0.00 in
06:25 60.7 °F 54.1 °F 29.30 in NW 12.0 mph 19.0 mph 79 % 0.00 in
06:29 60.1 °F 54.9 °F 29.29 in North 16.1 mph 8.1 mph 83 % 0.01 in
06:30 60.7 °F 54.5 °F 29.30 in NNW 8.0 mph 19.0 mph 80 % 0.00 in
06:34 59.5 °F 55.0 °F 29.30 in NW 11.5 mph 8.8 mph 85 % 0.02 in
06:35 60.6 °F 54.4 °F 29.30 in NNW 8.0 mph 15.0 mph 80 % 0.00 in
06:39 59.1 °F 55.2 °F 29.29 in NW 5.8 mph 6.6 mph 87 % 0.04 in
06:40 60.5 °F 54.3 °F 29.29 in NNW 12.0 mph 17.0 mph 80 % 0.00 in
06:44 58.8 °F 55.3 °F 29.30 in North 10.4 mph 8.9 mph 88 % 0.04 in
06:45 60.4 °F 54.5 °F 29.29 in NNW 10.0 mph 15.0 mph 81 % 0.00 in
06:49 58.8 °F 55.6 °F 29.30 in NW 8.1 mph 5.6 mph 89 % 0.04 in
06:50 60.4 °F 54.5 °F 29.29 in NNW 12.0 mph 19.0 mph 81 % 0.00 in
06:54 58.8 °F 55.6 °F 29.30 in NW 11.5 mph 8.4 mph 89 % 0.04 in
06:55 60.3 °F 54.4 °F 29.29 in NNW 8.0 mph 17.0 mph 81 % 0.00 in
06:59 59.0 °F 54.8 °F 29.30 in WNW 16.1 mph 13.1 mph 86 % 0.04 in
07:00 60.3 °F 54.4 °F 29.30 in NNW 9.0 mph 19.0 mph 81 % 0.00 in
07:04 59.5 °F 54.3 °F 29.30 in WNW 19.6 mph 15.4 mph 83 % 0.04 in
07:05 60.3 °F 54.4 °F 29.29 in NW 8.0 mph 14.0 mph 81 % 0.00 in
07:09 59.8 °F 54.0 °F 29.30 in NW 23.0 mph 19.1 mph 81 % 0.04 in
07:10 60.3 °F 54.4 °F 29.29 in NNW 9.0 mph 17.0 mph 81 % 0.00 in
07:14 60.1 °F 54.2 °F 29.30 in NW 11.5 mph 9.4 mph 81 % 0.04 in
07:15 60.2 °F 54.3 °F 29.29 in NNW 8.0 mph 14.0 mph 81 % 0.00 in
07:19 60.1 °F 54.2 °F 29.30 in NW 15.0 mph 11.5 mph 81 % 0.04 in
07:20 60.2 °F 54.3 °F 29.29 in NNW 9.0 mph 13.0 mph 81 % 0.00 in
07:24 60.1 °F 54.2 °F 29.30 in NW 11.5 mph 7.5 mph 81 % 0.04 in
07:25 60.3 °F 54.1 °F 29.29 in NNW 9.0 mph 18.0 mph 80 % 0.00 in
07:29 60.3 °F 54.1 °F 29.30 in NNW 16.1 mph 9.6 mph 80 % 0.03 in
07:30 60.7 °F 54.1 °F 29.29 in NW 10.0 mph 17.0 mph 79 % 0.00 in
07:34 60.5 °F 53.6 °F 29.30 in NW 19.6 mph 7.3 mph 78 % 0.02 in
07:35 60.9 °F 54.3 °F 29.29 in NW 6.0 mph 14.0 mph 79 % 0.00 in
07:39 60.7 °F 53.4 °F 29.30 in NW 19.6 mph 7.5 mph 77 % 0.00 in
07:40 60.8 °F 54.2 °F 29.29 in NNW 9.0 mph 16.0 mph 79 % 0.00 in
07:44 60.7 °F 53.4 °F 29.30 in WNW 12.7 mph 5.3 mph 77 % 0.00 in
07:45 61.0 °F 54.1 °F 29.29 in NW 13.0 mph 20.0 mph 78 % 0.00 in
07:49 60.7 °F 53.1 °F 29.30 in WNW 12.0 mph 10.0 mph 76 % 0.00 in
07:50 61.4 °F 54.1 °F 29.29 in NW 14.0 mph 18.0 mph 77 % 0.00 in
07:54 60.5 °F 52.5 °F 29.30 in WNW 9.2 mph 5.9 mph 75 % 0.00 in
07:55 61.5 °F 53.9 °F 29.29 in NW 12.0 mph 18.0 mph 76 % 0.00 in
07:59 60.4 °F 52.4 °F 29.30 in NNW 11.5 mph 8.0 mph 75 % 0.00 in
08:00 61.4 °F 53.8 °F 29.29 in NW 13.0 mph 19.0 mph 76 % 0.00 in
08:04 60.5 °F 52.2 °F 29.30 in NNW 14.0 mph 8.6 mph 74 % 0.00 in
08:05 61.5 °F 54.2 °F 29.29 in NW 12.0 mph 18.0 mph 77 % 0.00 in
08:09 60.9 °F 52.9 °F 29.30 in NNW 11.5 mph 6.2 mph 75 % 0.00 in
08:10 61.5 °F 54.2 °F 29.29 in NW 10.0 mph 19.0 mph 77 % 0.00 in
08:14 61.3 °F 52.9 °F 29.30 in NW 14.0 mph 10.1 mph 74 % 0.00 in
08:15 61.4 °F 54.1 °F 29.29 in NW 10.0 mph 21.0 mph 77 % 0.00 in
08:19 61.1 °F 52.4 °F 29.30 in NW 15.0 mph 10.2 mph 73 % 0.00 in
08:20 61.3 °F 54.4 °F 29.29 in NW 10.0 mph 17.0 mph 78 % 0.00 in
08:24 60.9 °F 52.6 °F 29.30 in NW 12.7 mph 10.8 mph 74 % 0.00 in
08:25 61.0 °F 54.8 °F 29.29 in NNW 10.0 mph 19.0 mph 80 % 0.00 in
08:29 60.8 °F 52.5 °F 29.30 in NW 11.5 mph 7.8 mph 74 % 0.00 in
08:30 60.6 °F 54.7 °F 29.29 in NNW 9.0 mph 17.0 mph 81 % 0.00 in
08:34 60.9 °F 52.6 °F 29.30 in North 11.5 mph 6.3 mph 74 % 0.00 in
08:35 59.9 °F 55.1 °F 29.29 in NNW 6.0 mph 16.0 mph 84 % 0.01 in
08:39 61.1 °F 52.7 °F 29.30 in NNW 11.5 mph 7.1 mph 74 % 0.00 in
08:40 59.4 °F 55.2 °F 29.29 in NNW 6.0 mph 14.0 mph 86 % 0.02 in
08:44 61.1 °F 52.7 °F 29.30 in NNW 19.6 mph 19.6 mph 74 % 0.00 in
08:45 59.0 °F 55.1 °F 29.30 in NW 8.0 mph 14.0 mph 87 % 0.03 in
08:49 61.2 °F 52.8 °F 29.30 in NW 10.4 mph 8.0 mph 74 % 0.00 in
08:50 58.8 °F 55.3 °F 29.30 in NW 5.0 mph 14.0 mph 88 % 0.02 in
08:54 61.7 °F 53.0 °F 29.30 in NW 15.0 mph 9.2 mph 73 % 0.00 in
08:55 58.7 °F 55.5 °F 29.29 in NW 5.0 mph 8.0 mph 89 % 0.00 in
08:59 61.9 °F 52.8 °F 29.30 in WNW 13.8 mph 8.8 mph 72 % 0.01 in
09:00 58.8 °F 55.3 °F 29.30 in NW 8.0 mph 20.0 mph 88 % 0.00 in
09:04 62.1 °F 53.0 °F 29.31 in NW 14.0 mph 8.6 mph 72 % 0.01 in
09:05 59.0 °F 54.2 °F 29.30 in NW 17.0 mph 22.0 mph 84 % 0.00 in
09:09 61.7 °F 53.0 °F 29.32 in WNW 19.6 mph 17.2 mph 73 % 0.01 in
09:10 59.6 °F 54.4 °F 29.30 in NW 12.0 mph 22.0 mph 83 % 0.00 in
09:14 61.1 °F 53.1 °F 29.32 in NW 16.1 mph 10.5 mph 75 % 0.01 in
09:15 59.9 °F 54.1 °F 29.30 in NW 13.0 mph 29.0 mph 81 % 0.00 in
09:19 60.4 °F 53.2 °F 29.33 in WNW 21.9 mph 11.9 mph 77 % 0.01 in
09:20 60.1 °F 54.2 °F 29.30 in NW 9.0 mph 19.0 mph 81 % 0.00 in
09:24 59.6 °F 54.4 °F 29.33 in WNW 10.0 mph 7.0 mph 83 % 0.01 in
09:25 60.1 °F 54.2 °F 29.30 in NW 7.0 mph 17.0 mph 81 % 0.00 in
09:29 59.0 °F 53.5 °F 29.34 in West 18.4 mph 12.7 mph 82 % 0.01 in
09:30 60.1 °F 54.2 °F 29.30 in NW 13.0 mph 19.0 mph 81 % 0.00 in
09:34 57.6 °F 51.5 °F 29.36 in SW 19.6 mph 11.0 mph 80 % 0.01 in
09:35 60.3 °F 53.8 °F 29.30 in NW 12.0 mph 21.0 mph 79 % 0.00 in
09:39 54.7 °F 49.6 °F 29.36 in SW 19.6 mph 11.4 mph 83 % 0.01 in
09:40 60.6 °F 53.7 °F 29.30 in NW 10.0 mph 19.0 mph 78 % 0.00 in
09:44 53.8 °F 49.7 °F 29.36 in SSW 19.6 mph 10.1 mph 86 % 0.01 in
09:45 60.7 °F 53.4 °F 29.30 in NW 9.0 mph 19.0 mph 77 % 0.00 in
09:49 53.5 °F 49.7 °F 29.37 in WSW 13.8 mph 4.8 mph 87 % 0.01 in
09:50 60.7 °F 53.4 °F 29.30 in NW 9.0 mph 19.0 mph 77 % 0.00 in
09:54 53.3 °F 49.5 °F 29.37 in WSW 12.0 mph 11.0 mph 87 % 0.01 in
09:55 60.6 °F 52.6 °F 29.30 in NW 10.0 mph 18.0 mph 75 % 0.00 in
09:59 53.4 °F 49.9 °F 29.37 in WSW 10.4 mph 7.1 mph 88 % 0.00 in
10:00 60.5 °F 52.5 °F 29.30 in WNW 8.0 mph 16.0 mph 75 % 0.00 in
10:04 53.6 °F 50.1 °F 29.38 in SSW 15.0 mph 9.8 mph 88 % 0.01 in
10:05 60.4 °F 52.1 °F 29.30 in NW 9.0 mph 14.0 mph 74 % 0.00 in
10:09 53.5 °F 50.0 °F 29.38 in SSW 12.7 mph 10.0 mph 88 % 0.01 in
10:10 60.6 °F 52.3 °F 29.30 in NW 6.0 mph 14.0 mph 74 % 0.00 in
10:14 53.3 °F 49.8 °F 29.39 in SW 15.0 mph 10.1 mph 88 % 0.01 in
10:15 61.0 °F 53.0 °F 29.30 in NW 8.0 mph 13.0 mph 75 % 0.00 in
10:19 52.6 °F 49.4 °F 29.39 in SSW 15.0 mph 9.3 mph 89 % 0.01 in
10:20 61.2 °F 52.5 °F 29.30 in NNW 9.0 mph 14.0 mph 73 % 0.00 in
10:24 52.3 °F 48.9 °F 29.40 in SW 19.6 mph 11.4 mph 88 % 0.01 in
10:25 61.1 °F 52.4 °F 29.30 in NW 8.0 mph 17.0 mph 73 % 0.00 in
10:29 52.0 °F 48.9 °F 29.40 in SSW 19.6 mph 12.4 mph 89 % 0.01 in
10:30 60.9 °F 52.6 °F 29.30 in NW 7.0 mph 14.0 mph 74 % 0.00 in
10:34 51.9 °F 48.8 °F 29.40 in WSW 17.3 mph 9.2 mph 89 % 0.01 in
10:35 60.8 °F 52.5 °F 29.30 in NW 7.0 mph 12.0 mph 74 % 0.00 in
10:39 51.9 °F 48.5 °F 29.40 in SW 19.6 mph 13.8 mph 88 % 0.01 in
10:40 60.9 °F 52.6 °F 29.30 in NW 9.0 mph 17.0 mph 74 % 0.00 in
10:44 52.7 °F 48.6 °F 29.40 in WSW 24.2 mph 17.8 mph 86 % 0.01 in
10:45 61.1 °F 52.7 °F 29.30 in NW 12.0 mph 19.0 mph 74 % 0.00 in
10:49 54.0 °F 49.0 °F 29.41 in SW 19.6 mph 12.3 mph 83 % 0.01 in
10:50 61.1 °F 52.7 °F 29.30 in NW 9.0 mph 19.0 mph 74 % 0.00 in
10:54 54.1 °F 48.1 °F 29.41 in SW 19.6 mph 8.1 mph 80 % 0.01 in
10:55 61.3 °F 52.9 °F 29.30 in NW 7.0 mph 12.0 mph 74 % 0.00 in
10:59 53.7 °F 48.0 °F 29.41 in WSW 15.0 mph 10.8 mph 81 % 0.01 in
11:00 61.8 °F 53.1 °F 29.30 in NNW 12.0 mph 18.0 mph 73 % 0.01 in
11:04 53.4 °F 48.4 °F 29.42 in West 18.0 mph 13.2 mph 83 % 0.00 in
11:05 62.0 °F 52.9 °F 29.31 in NW 12.0 mph 22.0 mph 72 % 0.01 in
11:09 52.9 °F 47.9 °F 29.42 in SW 15.0 mph 10.0 mph 83 % 0.00 in
11:10 62.1 °F 53.0 °F 29.31 in NW 7.0 mph 14.0 mph 72 % 0.00 in
11:14 53.0 °F 47.7 °F 29.42 in WSW 18.4 mph 15.1 mph 82 % 0.00 in
11:15 61.5 °F 52.8 °F 29.32 in NW 12.0 mph 25.0 mph 73 % 0.00 in
11:19 53.2 °F 47.5 °F 29.42 in WSW 16.1 mph 11.1 mph 81 % 0.00 in
11:20 60.9 °F 53.3 °F 29.32 in WNW 10.0 mph 17.0 mph 76 % 0.00 in
11:24 53.2 °F 47.2 °F 29.43 in SW 18.4 mph 11.6 mph 80 % 0.00 in
11:25 60.2 °F 53.3 °F 29.33 in WNW 12.0 mph 22.0 mph 78 % 0.00 in
11:29 53.3 °F 47.6 °F 29.43 in WSW 13.8 mph 9.3 mph 81 % 0.00 in
11:30 59.5 °F 53.7 °F 29.34 in WNW 5.0 mph 14.0 mph 81 % 0.00 in
11:34 53.7 °F 47.7 °F 29.43 in SW 11.5 mph 11.9 mph 80 % 0.00 in
11:35 59.0 °F 53.5 °F 29.34 in WNW 12.0 mph 20.0 mph 82 % 0.00 in
11:39 54.6 °F 47.2 °F 29.43 in SW 13.8 mph 10.4 mph 76 % 0.00 in
11:40 56.5 °F 50.1 °F 29.36 in WSW 17.0 mph 21.0 mph 79 % 0.00 in
11:44 54.7 °F 46.9 °F 29.44 in WSW 11.5 mph 7.7 mph 75 % 0.00 in
11:45 54.3 °F 49.6 °F 29.36 in SW 14.0 mph 21.0 mph 84 % 0.00 in
11:49 54.8 °F 46.7 °F 29.44 in WSW 16.1 mph 11.9 mph 74 % 0.00 in
11:50 53.6 °F 49.5 °F 29.36 in SW 8.0 mph 19.0 mph 86 % 0.00 in
11:54 55.0 °F 47.2 °F 29.44 in WNW 17.3 mph 11.1 mph 75 % 0.00 in
11:55 53.5 °F 49.7 °F 29.37 in SW 8.0 mph 16.0 mph 87 % 0.00 in
11:59 55.4 °F 46.5 °F 29.44 in West 17.3 mph 16.2 mph 72 % 0.00 in
12:00 53.3 °F 49.5 °F 29.37 in SW 5.0 mph 17.0 mph 87 % 0.00 in
12:04 56.3 °F 47.0 °F 29.44 in West 14.0 mph 10.5 mph 71 % 0.00 in
12:05 53.6 °F 50.1 °F 29.37 in SW 7.0 mph 14.0 mph 88 % 0.00 in
12:09 56.3 °F 44.7 °F 29.44 in West 19.6 mph 15.1 mph 65 % 0.00 in
12:10 53.6 °F 50.1 °F 29.37 in SW 12.0 mph 22.0 mph 88 % 0.01 in
12:14 56.0 °F 44.4 °F 29.44 in West 15.0 mph 13.3 mph 65 % 0.00 in
12:15 53.4 °F 49.9 °F 29.38 in SW 12.0 mph 19.0 mph 88 % 0.01 in
12:19 55.9 °F 44.3 °F 29.44 in West 12.7 mph 5.3 mph 65 % 0.00 in
12:20 53.0 °F 49.5 °F 29.39 in SW 13.0 mph 17.0 mph 88 % 0.00 in
12:24 56.1 °F 44.5 °F 29.44 in West 15.0 mph 8.0 mph 65 % 0.00 in
12:25 52.6 °F 49.4 °F 29.39 in SW 10.0 mph 18.0 mph 89 % 0.00 in
12:29 55.8 °F 44.6 °F 29.44 in West 10.4 mph 7.5 mph 66 % 0.00 in
12:30 52.2 °F 48.8 °F 29.40 in SW 12.0 mph 20.0 mph 88 % 0.00 in
12:34 55.7 °F 43.7 °F 29.45 in West 15.0 mph 9.5 mph 64 % 0.00 in
12:35 52.0 °F 48.9 °F 29.40 in SW 14.0 mph 21.0 mph 89 % 0.00 in
12:39 55.9 °F 44.7 °F 29.44 in West 9.2 mph 1.7 mph 66 % 0.00 in
12:40 51.8 °F 48.7 °F 29.40 in SW 12.0 mph 19.0 mph 89 % 0.00 in
12:44 56.2 °F 44.6 °F 29.44 in SW 9.2 mph 7.0 mph 65 % 0.00 in
12:45 52.1 °F 48.7 °F 29.41 in WSW 14.0 mph 19.0 mph 88 % 0.00 in
12:49 56.3 °F 44.7 °F 29.44 in West 12.7 mph 7.6 mph 65 % 0.00 in
12:50 53.1 °F 48.7 °F 29.40 in WSW 15.0 mph 24.0 mph 85 % 0.00 in
12:54 56.9 °F 44.8 °F 29.44 in WSW 11.5 mph 9.2 mph 64 % 0.00 in
12:55 54.2 °F 48.8 °F 29.41 in WSW 13.0 mph 21.0 mph 82 % 0.00 in
12:59 56.9 °F 45.3 °F 29.44 in West 13.8 mph 6.5 mph 65 % 0.00 in
13:00 54.0 °F 48.0 °F 29.41 in WSW 16.0 mph 24.0 mph 80 % 0.00 in
13:04 56.1 °F 45.3 °F 29.45 in WSW 15.0 mph 9.7 mph 67 % 0.00 in
13:05 53.6 °F 47.9 °F 29.41 in WSW 12.0 mph 21.0 mph 81 % 0.00 in
13:09 56.2 °F 45.8 °F 29.45 in WSW 9.2 mph 8.5 mph 68 % 0.00 in
13:10 53.3 °F 48.3 °F 29.42 in WSW 14.0 mph 22.0 mph 83 % 0.00 in
13:14 55.8 °F 45.4 °F 29.45 in SW 11.5 mph 8.1 mph 68 % 0.00 in
13:15 52.9 °F 47.9 °F 29.42 in WSW 13.0 mph 24.0 mph 83 % 0.00 in
13:19 55.6 °F 45.6 °F 29.45 in SW 6.9 mph 5.6 mph 69 % 0.00 in
13:20 53.0 °F 47.3 °F 29.42 in WSW 12.0 mph 21.0 mph 81 % 0.00 in
13:24 55.7 °F 45.7 °F 29.45 in West 5.8 mph 4.2 mph 69 % 0.00 in
13:25 53.1 °F 47.1 °F 29.42 in WSW 16.0 mph 23.0 mph 80 % 0.00 in
13:29 55.7 °F 45.3 °F 29.45 in West 6.9 mph 5.6 mph 68 % 0.00 in
13:30 53.2 °F 47.5 °F 29.43 in WSW 8.0 mph 18.0 mph 81 % 0.00 in
13:34 56.3 °F 45.1 °F 29.45 in WSW 10.4 mph 7.2 mph 66 % 0.00 in
13:35 53.3 °F 47.3 °F 29.43 in WSW 10.0 mph 21.0 mph 80 % 0.00 in
13:39 56.8 °F 45.2 °F 29.45 in West 9.2 mph 6.2 mph 65 % 0.00 in
13:40 53.9 °F 47.9 °F 29.43 in SW 12.0 mph 16.0 mph 80 % 0.00 in
13:44 57.1 °F 44.6 °F 29.45 in WNW 10.4 mph 8.0 mph 63 % 0.00 in
13:45 54.7 °F 47.3 °F 29.43 in SW 10.0 mph 22.0 mph 76 % 0.00 in
13:49 57.3 °F 43.5 °F 29.45 in North 15.0 mph 11.7 mph 60 % 0.00 in
13:50 54.7 °F 46.9 °F 29.44 in WSW 7.0 mph 21.0 mph 75 % 0.00 in
13:54 57.3 °F 44.4 °F 29.45 in West 9.2 mph 8.2 mph 62 % 0.00 in
13:55 54.7 °F 46.6 °F 29.44 in WSW 10.0 mph 16.0 mph 74 % 0.00 in
13:59 58.1 °F 44.3 °F 29.45 in WSW 11.5 mph 8.4 mph 60 % 0.00 in
14:00 55.0 °F 46.5 °F 29.44 in West 12.0 mph 18.0 mph 73 % 0.00 in
14:04 58.6 °F 45.6 °F 29.45 in SW 11.5 mph 5.9 mph 62 % 0.00 in
14:05 55.5 °F 46.2 °F 29.44 in West 9.0 mph 20.0 mph 71 % 0.00 in
14:09 58.4 °F 45.4 °F 29.45 in SW 9.2 mph 8.7 mph 62 % 0.00 in
14:10 56.5 °F 45.7 °F 29.44 in West 13.0 mph 21.0 mph 67 % 0.00 in
14:14 58.0 °F 45.0 °F 29.45 in SW 16.1 mph 8.5 mph 62 % 0.00 in
14:15 56.2 °F 44.6 °F 29.44 in West 12.0 mph 21.0 mph 65 % 0.00 in
14:19 58.0 °F 44.6 °F 29.45 in SW 10.4 mph 6.9 mph 61 % 0.00 in
14:20 56.0 °F 44.4 °F 29.44 in West 12.0 mph 17.0 mph 65 % 0.00 in
14:24 57.9 °F 42.8 °F 29.46 in WSW 18.4 mph 12.2 mph 57 % 0.00 in
14:25 56.0 °F 44.8 °F 29.44 in West 9.0 mph 16.0 mph 66 % 0.00 in
14:29 57.5 °F 43.7 °F 29.46 in West 11.5 mph 6.8 mph 60 % 0.00 in
14:30 56.0 °F 44.0 °F 29.44 in West 12.0 mph 16.0 mph 64 % 0.00 in
14:34 58.4 °F 43.7 °F 29.45 in WSW 13.8 mph 9.3 mph 58 % 0.00 in
14:35 55.8 °F 44.2 °F 29.45 in West 9.0 mph 13.0 mph 65 % 0.00 in
14:39 59.4 °F 42.3 °F 29.45 in WSW 19.6 mph 8.3 mph 53 % 0.00 in
14:40 55.7 °F 44.1 °F 29.45 in West 5.0 mph 15.0 mph 65 % 0.00 in
14:44 61.0 °F 41.7 °F 29.45 in WSW 15.0 mph 9.4 mph 49 % 0.00 in
14:45 56.0 °F 44.4 °F 29.44 in West 8.0 mph 13.0 mph 65 % 0.00 in
14:49 62.3 °F 38.9 °F 29.45 in West 21.9 mph 15.2 mph 42 % 0.00 in
14:50 56.2 °F 44.6 °F 29.45 in WSW 5.0 mph 11.0 mph 65 % 0.00 in
14:54 62.6 °F 39.2 °F 29.45 in West 25.3 mph 12.7 mph 42 % 0.00 in
14:55 56.5 °F 45.3 °F 29.44 in WSW 6.0 mph 13.0 mph 66 % 0.00 in
14:59 60.6 °F 39.1 °F 29.46 in SW 19.6 mph 17.2 mph 45 % 0.00 in
15:00 56.8 °F 45.2 °F 29.45 in West 6.0 mph 13.0 mph 65 % 0.00 in
15:04 58.9 °F 39.8 °F 29.46 in WSW 15.0 mph 11.5 mph 49 % 0.00 in
15:05 56.6 °F 45.4 °F 29.45 in West 14.0 mph 23.0 mph 66 % 0.00 in
15:09 58.9 °F 40.3 °F 29.46 in WSW 13.8 mph 7.8 mph 50 % 0.00 in
15:10 56.0 °F 45.6 °F 29.45 in WSW 12.0 mph 18.0 mph 68 % 0.00 in
15:14 59.5 °F 38.1 °F 29.46 in West 16.1 mph 14.7 mph 45 % 0.00 in
15:15 56.3 °F 46.3 °F 29.45 in WSW 8.0 mph 13.0 mph 69 % 0.00 in
15:19 60.3 °F 38.3 °F 29.46 in West 17.3 mph 13.8 mph 44 % 0.00 in
15:20 55.6 °F 45.6 °F 29.45 in WSW 3.0 mph 12.0 mph 69 % 0.00 in
15:24 60.9 °F 38.8 °F 29.46 in WSW 14.0 mph 10.7 mph 44 % 0.00 in
15:25 55.6 °F 45.6 °F 29.45 in SW 6.0 mph 8.0 mph 69 % 0.00 in
15:29 60.4 °F 38.4 °F 29.47 in West 25.3 mph 16.0 mph 44 % 0.00 in
15:30 55.7 °F 45.7 °F 29.45 in WSW 6.0 mph 10.0 mph 69 % 0.00 in
15:34 60.5 °F 39.6 °F 29.47 in SW 26.5 mph 19.7 mph 46 % 0.00 in
15:35 55.9 °F 45.5 °F 29.45 in West 3.0 mph 10.0 mph 68 % 0.00 in
15:39 58.7 °F 41.6 °F 29.48 in WSW 18.4 mph 9.6 mph 53 % 0.00 in
15:40 56.4 °F 44.8 °F 29.45 in West 10.0 mph 15.0 mph 65 % 0.00 in
15:44 57.4 °F 41.4 °F 29.48 in SW 20.7 mph 15.1 mph 55 % 0.00 in
15:45 56.9 °F 44.4 °F 29.45 in West 6.0 mph 12.0 mph 63 % 0.00 in
15:49 58.1 °F 41.5 °F 29.48 in WSW 20.7 mph 12.8 mph 54 % 0.00 in
15:50 57.1 °F 43.8 °F 29.44 in West 5.0 mph 11.0 mph 61 % 0.00 in
15:54 59.0 °F 40.9 °F 29.47 in SW 16.1 mph 6.2 mph 51 % 0.00 in
15:55 57.3 °F 44.0 °F 29.45 in West 12.0 mph 15.0 mph 61 % 0.00 in
15:59 60.3 °F 40.5 °F 29.47 in WSW 14.0 mph 13.6 mph 48 % 0.00 in
16:00 57.4 °F 44.5 °F 29.45 in West 7.0 mph 14.0 mph 62 % 0.00 in
16:04 60.4 °F 37.8 °F 29.48 in WSW 19.6 mph 15.8 mph 43 % 0.00 in
16:05 58.4 °F 45.0 °F 29.45 in West 6.0 mph 12.0 mph 61 % 0.00 in
16:09 58.6 °F 40.0 °F 29.49 in WSW 28.8 mph 14.1 mph 50 % 0.00 in
16:10 58.7 °F 45.7 °F 29.45 in WSW 6.0 mph 13.0 mph 62 % 0.00 in
16:14 55.7 °F 42.0 °F 29.49 in WNW 19.6 mph 13.0 mph 60 % 0.00 in
16:15 58.3 °F 45.3 °F 29.45 in SW 10.0 mph 18.0 mph 62 % 0.00 in
16:19 55.2 °F 41.5 °F 29.49 in West 24.2 mph 15.0 mph 60 % 0.00 in
16:20 57.9 °F 44.5 °F 29.45 in SW 9.0 mph 19.0 mph 61 % 0.00 in
16:24 55.7 °F 43.7 °F 29.49 in West 19.6 mph 12.3 mph 64 % 0.00 in
16:25 58.0 °F 43.7 °F 29.45 in SW 12.0 mph 15.0 mph 59 % 0.00 in
16:29 57.0 °F 43.2 °F 29.49 in WNW 12.7 mph 10.9 mph 60 % 0.00 in
16:30 57.6 °F 42.9 °F 29.46 in WSW 12.0 mph 20.0 mph 58 % 0.00 in
16:34 58.1 °F 42.0 °F 29.48 in NW 11.5 mph 8.5 mph 55 % 0.00 in
16:35 57.6 °F 44.2 °F 29.46 in WSW 6.0 mph 12.0 mph 61 % 0.00 in
16:39 59.1 °F 41.5 °F 29.48 in NW 8.1 mph 5.8 mph 52 % 0.00 in
16:40 58.7 °F 43.5 °F 29.45 in WSW 10.0 mph 18.0 mph 57 % 0.00 in
16:44 60.1 °F 42.4 °F 29.48 in West 14.0 mph 10.0 mph 52 % 0.00 in
16:45 59.7 °F 41.5 °F 29.45 in WSW 14.0 mph 19.0 mph 51 % 0.00 in
16:49 60.0 °F 40.2 °F 29.48 in NW 25.3 mph 12.3 mph 48 % 0.00 in
16:50 61.5 °F 39.4 °F 29.45 in WSW 14.0 mph 19.0 mph 44 % 0.00 in
16:54 59.7 °F 39.4 °F 29.49 in West 15.0 mph 12.1 mph 47 % 0.00 in
16:55 62.7 °F 40.5 °F 29.45 in West 13.0 mph 22.0 mph 44 % 0.00 in
16:59 60.1 °F 40.3 °F 29.49 in WNW 15.0 mph 10.6 mph 48 % 0.00 in
17:00 62.2 °F 38.8 °F 29.45 in West 16.0 mph 25.0 mph 42 % 0.00 in
17:04 60.2 °F 41.0 °F 29.48 in WSW 15.0 mph 12.1 mph 49 % 0.00 in
17:05 59.9 °F 39.1 °F 29.46 in WSW 18.0 mph 23.0 mph 46 % 0.00 in
17:09 60.1 °F 40.9 °F 29.48 in West 12.7 mph 10.2 mph 49 % 0.00 in
17:10 58.8 °F 39.7 °F 29.46 in WSW 10.0 mph 22.0 mph 49 % 0.00 in
17:14 61.6 °F 40.6 °F 29.49 in WNW 16.1 mph 8.5 mph 46 % 0.00 in
17:15 59.2 °F 40.0 °F 29.46 in SW 8.0 mph 15.0 mph 49 % 0.00 in
17:19 62.4 °F 39.0 °F 29.49 in West 19.0 mph 13.6 mph 42 % 0.00 in
17:20 59.5 °F 37.0 °F 29.46 in WSW 12.0 mph 23.0 mph 43 % 0.00 in
17:24 62.8 °F 38.1 °F 29.49 in West 22.0 mph 14.4 mph 40 % 0.00 in
17:25 60.9 °F 38.8 °F 29.46 in West 14.0 mph 18.0 mph 44 % 0.00 in
17:29 62.6 °F 38.6 °F 29.49 in West 15.0 mph 8.1 mph 41 % 0.00 in
17:30 60.6 °F 39.1 °F 29.46 in WSW 17.0 mph 25.0 mph 45 % 0.00 in
17:34 62.5 °F 35.9 °F 29.50 in West 19.6 mph 14.3 mph 37 % 0.00 in
17:35 60.6 °F 39.1 °F 29.47 in WSW 16.0 mph 26.0 mph 45 % 0.00 in
17:39 62.0 °F 34.7 °F 29.50 in West 20.7 mph 12.7 mph 36 % 0.00 in
17:40 60.2 °F 40.4 °F 29.47 in WSW 20.0 mph 26.0 mph 48 % 0.00 in
17:44 61.9 °F 35.3 °F 29.50 in West 19.6 mph 15.3 mph 37 % 0.00 in
17:45 58.5 °F 41.9 °F 29.47 in WSW 13.0 mph 22.0 mph 54 % 0.00 in
17:49 61.5 °F 35.6 °F 29.50 in West 19.6 mph 11.5 mph 38 % 0.00 in
17:50 57.3 °F 41.3 °F 29.48 in SW 7.0 mph 21.0 mph 55 % 0.00 in
17:54 62.2 °F 36.9 °F 29.50 in WNW 13.8 mph 10.2 mph 39 % 0.00 in
17:55 58.4 °F 40.8 °F 29.48 in SW 12.0 mph 21.0 mph 52 % 0.00 in
17:59 62.4 °F 36.4 °F 29.51 in West 16.1 mph 9.6 mph 38 % 0.00 in
18:00 59.5 °F 41.9 °F 29.47 in SW 12.0 mph 19.0 mph 52 % 0.00 in
18:04 62.1 °F 36.2 °F 29.51 in SSW 20.0 mph 10.4 mph 38 % 0.00 in
18:05 60.3 °F 39.4 °F 29.47 in SW 13.0 mph 18.0 mph 46 % 0.00 in
18:09 60.9 °F 36.4 °F 29.51 in SSW 16.1 mph 12.0 mph 40 % 0.00 in
18:10 60.1 °F 38.1 °F 29.48 in WSW 16.0 mph 22.0 mph 44 % 0.00 in
18:14 60.6 °F 36.1 °F 29.51 in SSW 21.9 mph 12.8 mph 40 % 0.00 in
18:15 57.9 °F 40.4 °F 29.49 in WSW 20.0 mph 29.0 mph 52 % 0.00 in
18:19 61.2 °F 36.0 °F 29.52 in West 17.3 mph 9.3 mph 39 % 0.00 in
18:20 55.3 °F 41.6 °F 29.49 in West 16.0 mph 25.0 mph 60 % 0.00 in
18:24 61.7 °F 36.5 °F 29.52 in West 15.0 mph 10.0 mph 39 % 0.00 in
18:25 55.2 °F 41.5 °F 29.49 in West 14.0 mph 24.0 mph 60 % 0.00 in
18:29 62.0 °F 36.7 °F 29.52 in West 13.8 mph 10.7 mph 39 % 0.00 in
18:30 56.0 °F 44.4 °F 29.49 in West 10.0 mph 19.0 mph 65 % 0.00 in
18:34 61.9 °F 36.0 °F 29.52 in West 20.7 mph 13.7 mph 38 % 0.00 in
18:35 57.3 °F 43.1 °F 29.49 in West 8.0 mph 21.0 mph 59 % 0.00 in
18:39 61.4 °F 36.8 °F 29.52 in WSW 15.0 mph 8.5 mph 40 % 0.00 in
18:40 58.5 °F 42.4 °F 29.48 in WNW 6.0 mph 13.0 mph 55 % 0.00 in
18:44 61.3 °F 37.4 °F 29.53 in SW 12.7 mph 11.2 mph 41 % 0.00 in
18:45 59.3 °F 42.2 °F 29.48 in NW 5.0 mph 14.0 mph 53 % 0.00 in
18:49 60.9 °F 36.4 °F 29.54 in SW 10.4 mph 5.4 mph 40 % 0.00 in
18:50 60.2 °F 41.0 °F 29.48 in WNW 8.0 mph 15.0 mph 49 % 0.00 in
18:54 60.3 °F 36.5 °F 29.54 in WSW 19.6 mph 10.7 mph 41 % 0.00 in
18:55 59.6 °F 40.4 °F 29.49 in WNW 14.0 mph 25.0 mph 49 % 0.00 in
18:59 60.2 °F 35.8 °F 29.54 in WSW 17.3 mph 12.5 mph 40 % 0.00 in
19:00 59.9 °F 40.1 °F 29.49 in West 13.0 mph 17.0 mph 48 % 0.00 in
19:04 59.9 °F 35.5 °F 29.54 in West 15.0 mph 10.5 mph 40 % 0.00 in
19:05 60.3 °F 41.0 °F 29.49 in West 10.0 mph 19.0 mph 49 % 0.00 in
19:09 59.9 °F 34.9 °F 29.55 in WSW 21.9 mph 13.4 mph 39 % 0.00 in
19:10 60.0 °F 40.8 °F 29.49 in West 10.0 mph 18.0 mph 49 % 0.00 in
19:14 59.5 °F 35.8 °F 29.55 in West 16.0 mph 13.1 mph 41 % 0.00 in
19:15 60.4 °F 40.1 °F 29.48 in West 13.0 mph 18.0 mph 47 % 0.00 in
19:19 59.0 °F 34.7 °F 29.55 in WSW 15.0 mph 8.5 mph 40 % 0.00 in
19:20 61.9 °F 40.3 °F 29.49 in WNW 9.0 mph 16.0 mph 45 % 0.00 in
19:24 58.9 °F 34.6 °F 29.56 in West 17.3 mph 8.8 mph 40 % 0.00 in
19:25 62.5 °F 39.1 °F 29.49 in West 12.0 mph 19.0 mph 42 % 0.00 in
19:29 58.8 °F 33.9 °F 29.56 in West 18.4 mph 12.4 mph 39 % 0.00 in
19:30 62.7 °F 38.0 °F 29.49 in West 12.0 mph 22.0 mph 40 % 0.00 in
19:34 58.5 °F 34.2 °F 29.56 in West 15.0 mph 5.4 mph 40 % 0.00 in
19:35 62.7 °F 38.0 °F 29.50 in West 15.0 mph 21.0 mph 40 % 0.00 in
19:39 57.9 °F 34.9 °F 29.56 in SW 9.2 mph 4.3 mph 42 % 0.00 in
19:40 62.4 °F 35.1 °F 29.50 in West 13.0 mph 20.0 mph 36 % 0.00 in
19:44 57.4 °F 35.1 °F 29.56 in West 11.5 mph 7.0 mph 43 % 0.00 in
19:45 62.2 °F 35.6 °F 29.50 in West 13.0 mph 22.0 mph 37 % 0.00 in
19:49 57.1 °F 35.4 °F 29.57 in WSW 17.3 mph 5.0 mph 44 % 0.00 in
19:50 61.7 °F 35.1 °F 29.50 in West 14.0 mph 20.0 mph 37 % 0.00 in
19:54 57.2 °F 36.0 °F 29.57 in WSW 6.9 mph 4.5 mph 45 % 0.00 in
19:55 61.5 °F 35.6 °F 29.50 in West 14.0 mph 21.0 mph 38 % 0.00 in
19:59 57.2 °F 36.6 °F 29.57 in WSW 6.9 mph 5.4 mph 46 % 0.00 in
20:00 62.2 °F 36.3 °F 29.50 in West 10.0 mph 16.0 mph 38 % 0.00 in
20:04 57.0 °F 36.4 °F 29.57 in SW 17.3 mph 9.7 mph 46 % 0.00 in
20:05 62.5 °F 36.5 °F 29.51 in West 12.0 mph 17.0 mph 38 % 0.00 in
20:09 56.8 °F 36.8 °F 29.58 in SW 19.6 mph 10.6 mph 47 % 0.00 in
20:10 61.7 °F 36.5 °F 29.51 in WSW 15.0 mph 21.0 mph 39 % 0.00 in
20:14 56.6 °F 37.1 °F 29.58 in SW 15.0 mph 10.2 mph 48 % 0.00 in
20:15 60.7 °F 36.8 °F 29.51 in SW 10.0 mph 18.0 mph 41 % 0.00 in
20:19 56.3 °F 36.8 °F 29.58 in WSW 11.0 mph 6.8 mph 48 % 0.00 in
20:20 60.7 °F 35.6 °F 29.51 in SW 12.0 mph 22.0 mph 39 % 0.00 in
20:24 56.0 °F 36.0 °F 29.58 in West 16.1 mph 10.8 mph 47 % 0.00 in
20:25 61.4 °F 36.2 °F 29.52 in SW 8.0 mph 17.0 mph 39 % 0.00 in
20:29 55.8 °F 35.9 °F 29.58 in WSW 13.8 mph 9.5 mph 47 % 0.00 in
20:30 61.8 °F 36.6 °F 29.52 in WSW 10.0 mph 16.0 mph 39 % 0.00 in
20:34 55.6 °F 36.2 °F 29.59 in WSW 11.5 mph 7.8 mph 48 % 0.00 in
20:35 62.0 °F 36.7 °F 29.52 in West 9.0 mph 16.0 mph 39 % 0.00 in
20:39 55.2 °F 35.8 °F 29.59 in West 11.5 mph 9.5 mph 48 % 0.00 in
20:40 61.7 °F 35.8 °F 29.52 in West 14.0 mph 21.0 mph 38 % 0.00 in
20:44 55.0 °F 35.7 °F 29.59 in West 11.5 mph 6.9 mph 48 % 0.00 in
20:45 61.3 °F 36.8 °F 29.53 in WSW 9.0 mph 16.0 mph 40 % 0.00 in
20:49 54.7 °F 35.4 °F 29.59 in West 10.4 mph 8.4 mph 48 % 0.00 in
20:50 61.2 °F 36.7 °F 29.53 in SW 12.0 mph 17.0 mph 40 % 0.00 in
20:54 54.5 °F 35.7 °F 29.59 in WSW 9.0 mph 5.8 mph 49 % 0.00 in
20:55 60.8 °F 36.3 °F 29.54 in SW 12.0 mph 16.0 mph 40 % 0.00 in
20:59 54.3 °F 35.5 °F 29.60 in West 11.5 mph 5.4 mph 49 % 0.00 in
21:00 60.3 °F 36.5 °F 29.54 in SW 12.0 mph 19.0 mph 41 % 0.00 in
21:04 54.3 °F 36.0 °F 29.60 in West 9.2 mph 5.6 mph 50 % 0.00 in
21:05 60.2 °F 36.4 °F 29.54 in WSW 12.0 mph 18.0 mph 41 % 0.00 in
21:09 54.1 °F 35.9 °F 29.60 in West 5.8 mph 3.3 mph 50 % 0.00 in
21:10 59.9 °F 35.5 °F 29.54 in WSW 12.0 mph 22.0 mph 40 % 0.00 in
21:14 53.8 °F 36.1 °F 29.60 in West 6.9 mph 4.2 mph 51 % 0.00 in
21:15 59.7 °F 34.7 °F 29.55 in WSW 12.0 mph 22.0 mph 39 % 0.00 in
21:19 53.5 °F 35.8 °F 29.60 in West 7.0 mph 6.5 mph 51 % 0.00 in
21:20 59.4 °F 35.1 °F 29.55 in West 14.0 mph 25.0 mph 40 % 0.00 in
21:24 53.5 °F 36.3 °F 29.61 in West 6.9 mph 4.2 mph 52 % 0.00 in
21:25 59.0 °F 34.7 °F 29.55 in West 10.0 mph 19.0 mph 40 % 0.00 in
21:29 53.2 °F 36.5 °F 29.61 in West 3.5 mph 2.9 mph 53 % 0.00 in
21:30 59.0 °F 35.3 °F 29.56 in West 8.0 mph 17.0 mph 41 % 0.00 in
21:34 53.0 °F 36.3 °F 29.61 in West 6.9 mph 4.5 mph 53 % 0.00 in
21:35 58.8 °F 34.5 °F 29.56 in WSW 9.0 mph 18.0 mph 40 % 0.00 in
21:38 53.0 °F 36.3 °F 29.61 in West 6.9 mph 6.9 mph 53 % 0.00 in
21:40 58.4 °F 34.8 °F 29.56 in WSW 8.0 mph 15.0 mph 41 % 0.00 in
21:44 52.9 °F 36.7 °F 29.62 in West 5.8 mph 4.2 mph 54 % 0.00 in
21:45 57.8 °F 34.8 °F 29.56 in WSW 7.0 mph 11.0 mph 42 % 0.00 in
21:49 52.8 °F 36.6 °F 29.62 in West 6.0 mph 3.5 mph 54 % 0.00 in
21:50 57.4 °F 35.6 °F 29.57 in WSW 7.0 mph 13.0 mph 44 % 0.00 in
21:54 52.6 °F 36.9 °F 29.62 in West 4.6 mph 4.7 mph 55 % 0.00 in
21:55 57.1 °F 35.9 °F 29.57 in West 3.0 mph 17.0 mph 45 % 0.00 in
21:59 52.5 °F 37.2 °F 29.63 in West 5.0 mph 3.7 mph 56 % 0.00 in
22:00 52.5 °F 37.2 °F 29.63 in West 5.8 mph 3.9 mph 56 % 0.00 in
22:05 57.2 °F 36.6 °F 29.57 in WSW 5.0 mph 7.0 mph 46 % 0.00 in
22:09 52.4 °F 37.6 °F 29.63 in West 5.0 mph 4.4 mph 57 % 0.00 in
22:10 57.0 °F 37.0 °F 29.58 in SW 8.0 mph 17.0 mph 47 % 0.00 in
22:14 52.1 °F 37.8 °F 29.63 in West 4.0 mph 1.8 mph 58 % 0.00 in
22:15 56.8 °F 36.8 °F 29.58 in SW 8.0 mph 19.0 mph 47 % 0.00 in
22:16 52.0 °F 37.7 °F 29.64 in West 6.0 mph 2.4 mph 58 % 0.00 in
22:20 56.6 °F 37.1 °F 29.58 in SW 6.0 mph 15.0 mph 48 % 0.00 in
22:24 51.7 °F 37.4 °F 29.64 in West 5.8 mph 5.8 mph 58 % 0.00 in
22:25 56.3 °F 36.8 °F 29.58 in WSW 9.0 mph 15.0 mph 48 % 0.00 in
22:29 51.7 °F 37.8 °F 29.64 in West 3.5 mph 2.8 mph 59 % 0.00 in
22:30 56.0 °F 36.0 °F 29.58 in WSW 10.0 mph 19.0 mph 47 % 0.00 in
22:34 51.5 °F 37.6 °F 29.64 in West 3.5 mph 3.1 mph 59 % 0.00 in
22:35 55.8 °F 36.4 °F 29.58 in West 8.0 mph 16.0 mph 48 % 0.00 in
22:36 51.5 °F 37.6 °F 29.64 in West 3.5 mph 2.4 mph 59 % 0.00 in
22:40 55.5 °F 36.1 °F 29.59 in West 8.0 mph 14.0 mph 48 % 0.00 in
22:44 51.1 °F 37.7 °F 29.65 in West 3.5 mph 3.5 mph 60 % 0.00 in
22:45 55.1 °F 35.7 °F 29.59 in West 12.0 mph 16.0 mph 48 % 0.00 in
22:49 50.9 °F 37.9 °F 29.65 in West 4.0 mph 3.4 mph 61 % 0.00 in
22:50 54.9 °F 35.0 °F 29.59 in West 10.0 mph 13.0 mph 47 % 0.00 in
22:52 50.7 °F 38.1 °F 29.65 in West 3.5 mph 2.7 mph 62 % 0.00 in
22:55 54.7 °F 35.4 °F 29.59 in West 5.0 mph 11.0 mph 48 % 0.00 in
22:59 50.5 °F 38.0 °F 29.65 in West 4.0 mph 3.5 mph 62 % 0.00 in
23:00 54.4 °F 35.1 °F 29.59 in WSW 8.0 mph 10.0 mph 48 % 0.00 in
23:04 50.7 °F 37.7 °F 29.66 in West 4.6 mph 3.2 mph 61 % 0.00 in
23:05 54.3 °F 35.5 °F 29.60 in WSW 9.0 mph 13.0 mph 49 % 0.00 in
23:09 50.9 °F 37.9 °F 29.66 in West 5.0 mph 3.8 mph 61 % 0.00 in
23:10 50.9 °F 37.9 °F 29.66 in West 3.0 mph 6.0 mph 61 % 0.00 in
23:10 54.2 °F 35.4 °F 29.60 in West 5.0 mph 12.0 mph 49 % 0.00 in
23:15 54.0 °F 35.8 °F 29.60 in West 5.0 mph 9.0 mph 50 % 0.00 in
23:19 51.7 °F 37.4 °F 29.66 in WSW 5.8 mph 3.2 mph 58 % 0.00 in
23:20 53.8 °F 36.1 °F 29.60 in West 3.0 mph 7.0 mph 51 % 0.00 in
23:24 51.6 °F 37.3 °F 29.66 in WSW 6.9 mph 3.8 mph 58 % 0.00 in
23:25 53.6 °F 36.4 °F 29.61 in West 6.0 mph 8.0 mph 52 % 0.00 in
23:29 51.6 °F 37.3 °F 29.66 in West 8.1 mph 5.0 mph 58 % 0.00 in
23:30 53.4 °F 36.2 °F 29.61 in West 3.0 mph 7.0 mph 52 % 0.00 in
23:34 51.7 °F 37.4 °F 29.66 in WSW 5.8 mph 4.6 mph 58 % 0.00 in
23:35 53.1 °F 36.4 °F 29.61 in West 5.0 mph 6.0 mph 53 % 0.00 in
23:39 51.6 °F 37.7 °F 29.66 in WSW 5.8 mph 2.8 mph 59 % 0.00 in
23:40 53.0 °F 36.3 °F 29.61 in West 3.0 mph 9.0 mph 53 % 0.00 in
23:44 51.7 °F 37.4 °F 29.66 in WSW 11.5 mph 4.9 mph 58 % 0.00 in
23:45 53.0 °F 36.3 °F 29.62 in West 3.0 mph 7.0 mph 53 % 0.00 in
23:49 51.9 °F 37.6 °F 29.66 in West 8.1 mph 5.5 mph 58 % 0.00 in
23:50 52.8 °F 36.6 °F 29.62 in West 3.0 mph 6.0 mph 54 % 0.00 in
23:54 52.0 °F 37.7 °F 29.66 in West 4.6 mph 2.7 mph 58 % 0.00 in
23:55 52.8 °F 36.6 °F 29.62 in West 3.0 mph 7.0 mph 54 % 0.00 in
23:59 52.0 °F 38.1 °F 29.66 in WNW 9.0 mph 7.0 mph 59 % 0.00 in
Ararat Weather
Compliments of Weather Underground - 3.75 mb
Click here to send mail.


ABOUT

Live weather data from Ararat, Victoria, Australia, 3377
Data uploaded from Cumulus every 5 minutes to Weather Underground.
This site then downloads the raw data for formatting and display.
Metric and imperial data can be displayed. Graphs and historical data available.
Includes Sun and Moon times and rain image live from BOM.

Check out Ararat Weather on Facebook, Twitter and Google +

Help support ongoing costs by checking out the ads





Follow @AraratWeather